Flight Track Log - Related Links

Times and Time Zones

All times are in EDT time to prevent confusion due to time zone crossing. See the UAL395 flight status page for this flight to view local times or setup timezone preferences in your user account.

Time Position Orientation Groundspeed Altitude Reporting Facility
EDT Latitude Longitude Course Direction KTS MPH feet Rate Location/Type
Sat 07:33:08 PM 42.0167 -87.9667 253° West 202 232 2,200  Level Chicago TRACON
Sat 07:34:08 PM 42.0667 -88.0167 323° Northwest 259 298 4,200 2,428 Climbing Chicago TRACON
Sat 07:35:00 PM 41.8762 -88.3345 242° Southwest  Level FlightAware Approximate
Sat 07:36:00 PM 41.8349 -88.4756 255° West  Level FlightAware Approximate
Sat 07:36:01 PM 42.1750 -88.1583 316° Northwest 303 349 9,200  Level Chicago Center
Sat 07:37:00 PM 41.8027 -88.6220 254° West  Level FlightAware Approximate
Sat 07:37:02 PM 42.1514 -88.2689 254° West 319 367 10,900  Level Chicago Center
Sat 07:38:00 PM 41.7703 -88.7681 253° West  Level FlightAware Approximate
Sat 07:38:04 PM 42.0814 -88.3642 225° Southwest 360 414 13,000  Level Chicago Center
Sat 07:39:05 PM 42.0108 -88.4667 227° Southwest 373 429 16,500 3,122 Climbing Chicago Center
Sat 07:40:07 PM 41.9372 -88.5692 226° Southwest 382 440 19,400 2,585 Climbing Chicago Center
Sat 07:41:08 PM 41.8794 -88.7006 239° Southwest 416 479 21,800 2,390 Climbing Chicago Center
Sat 07:42:10 PM 41.8283 -88.8811 249° West 434 499 24,300 1,366 Climbing Chicago Center
Sat 07:43:11 PM 41.7833 -89.0403 249° West 455 524 24,600 492 Climbing Chicago Center
Sat 07:44:12 PM 41.7356 -89.2089 249° West 483 556 25,300 976 Climbing Chicago Center
Sat 07:45:14 PM 41.6878 -89.3800 250° West 493 567 26,600 1,220 Climbing Chicago Center
Sat 07:46:15 PM 41.6397 -89.5453 249° West 485 558 27,800 1,268 Climbing Chicago Center
Sat 07:47:17 PM 41.5861 -89.7375 250° West 485 558 29,200 1,268 Climbing Chicago Center
Sat 07:48:18 PM 41.5389 -89.9014 249° West 479 551 30,400 1,082 Climbing Chicago Center
Sat 07:49:19 PM 41.4917 -90.0633 249° West 474 545 31,400 780 Climbing Chicago Center
Sat 07:50:21 PM 41.4439 -90.2261 249° West 475 547 32,000 293 Climbing Chicago Center
Sat 07:51:22 PM 41.3967 -90.3858 249° West 470 541 32,000  Level Chicago Center
Sat 07:52:24 PM 41.3489 -90.5475 249° West 471 542 32,000  Level Chicago Center
Sat 07:53:25 PM 41.3050 -90.7178 251° West 487 560 32,000  Level Chicago Center
Sat 07:54:27 PM 41.2708 -90.8883 255° West 482 555 32,000  Level Chicago Center
Sat 07:55:28 PM 41.2297 -91.0894 255° West 475 547 32,000  Level Chicago Center
Sat 07:56:30 PM 41.1947 -91.2583 255° West 474 545 32,000  Level Chicago Center
Sat 07:57:31 PM 41.1592 -91.4275 254° West 477 549 32,000  Level Chicago Center
Sat 07:58:32 PM 41.1258 -91.5958 255° West 474 545 32,000  Level Chicago Center
Sat 07:59:34 PM 41.0939 -91.7667 256° West 478 550 32,000 390 Level Chicago Center
Sat 08:00:35 PM 41.0625 -91.9375 256° West 481 554 32,800 829 Climbing Chicago Center
Sat 08:01:37 PM 41.0314 -92.1072 256° West 479 551 33,700 1,024 Climbing Chicago Center
Sat 08:02:38 PM 40.9939 -92.3075 256° West 473 544 34,900 878 Climbing Chicago Center
Sat 08:03:40 PM 40.9619 -92.4719 256° West 468 539 35,500 537 Climbing Chicago Center
Sat 08:04:41 PM 40.9308 -92.6353 256° West 465 535 36,000 246 Climbing Chicago Center
Sat 08:05:42 PM 40.8997 -92.7919 255° West 450 518 36,000  Level Chicago Center
Sat 08:06:21 PM 40.8819 -92.8892 256° West 453 521 36,000  Level Minneapolis Center
Sat 08:07:35 PM 40.8372 -93.1108 255° West 452 520 36,000  Level Minneapolis Center
Sat 08:08:36 PM 40.8128 -93.2350 255° West 449 517 36,000  Level Minneapolis Center
Sat 08:09:37 PM 40.7758 -93.4236 256° West 447 514 36,000 -590 Level Minneapolis Center
Sat 08:10:38 PM 40.7439 -93.5822 255° West 450 518 34,800 -1,902 Descending Minneapolis Center
Sat 08:11:40 PM 40.7072 -93.7483 254° West 461 531 32,100 -1,366 Descending Minneapolis Center
Sat 08:12:41 PM 40.6731 -93.9175 255° West 473 544 32,000 -49 Descending Minneapolis Center
Sat 08:13:42 PM 40.6392 -94.0853 255° West 478 550 32,000  Level Minneapolis Center
Sat 08:14:43 PM 40.5975 -94.2864 255° West 479 551 32,000  Level Minneapolis Center
Sat 08:15:44 PM 40.5622 -94.4531 254° West 479 551 32,000  Level Minneapolis Center
Sat 08:16:45 PM 40.5322 -94.5964 255° West 480 552 32,000  Level Minneapolis Center
Sat 08:17:47 PM 40.4886 -94.7983 254° West 478 550 32,000  Level Minneapolis Center
Sat 08:18:48 PM 40.4533 -94.9664 255° West 478 550 32,000  Level Minneapolis Center
Sat 08:19:50 PM 40.4178 -95.1325 254° West 474 545 32,000  Level Minneapolis Center
Sat 08:20:51 PM 40.3811 -95.3000 254° West 475 547 32,000  Level Minneapolis Center
Sat 08:21:52 PM 40.3453 -95.4664 254° West 474 545 32,000  Level Minneapolis Center
Sat 08:22:53 PM 40.3094 -95.6314 254° West 472 543 32,000  Level Minneapolis Center
Sat 08:23:55 PM 40.2714 -95.7986 253° West 475 547 32,000  Level Minneapolis Center
Sat 08:24:56 PM 40.2353 -95.9650 254° West 473 544 32,000  Level Minneapolis Center
Sat 08:26:09 PM 40.1972 -96.1303 253° West 473 544 32,000  Level Minneapolis Center
Sat 08:27:23 PM 40.1508 -96.3331 253° West 480 552 32,000  Level Minneapolis Center
Sat 08:28:25 PM 40.0967 -96.5653 253° West 478 550 32,000  Level Minneapolis Center
Sat 08:29:26 PM 40.0586 -96.7311 253° West 477 549 32,000  Level Minneapolis Center
Sat 08:30:27 PM 40.0200 -96.8986 253° West 479 551 32,000  Level Minneapolis Center
Sat 08:31:29 PM 39.9806 -97.0619 253° West 476 548 32,000 -390 Level Minneapolis Center
Sat 08:32:30 PM 39.9419 -97.2275 253° West 475 547 31,200 -927 Descending Minneapolis Center
Sat 08:33:32 PM 39.8975 -97.4111 253° West 476 548 30,100 -585 Descending Minneapolis Center
Sat 08:34:33 PM 39.8583 -97.5744 253° West 474 545 30,000 -45 Descending Minneapolis Center
Sat 08:35:46 PM 39.8178 -97.7367 252° West 471 542 30,000  Level Minneapolis Center
Sat 08:36:48 PM 39.7711 -97.9331 253° West 472 543 30,000  Level Minneapolis Center
Sat 08:37:49 PM 39.7306 -98.0961 252° West 473 544 30,000  Level Minneapolis Center
Sat 08:38:51 PM 39.6900 -98.2572 252° West 470 541 30,000  Level Minneapolis Center
Sat 08:39:52 PM 39.6503 -98.4189 252° West 469 540 30,000  Level Minneapolis Center
Sat 08:41:00 PM 39.6014 -98.6106 252° West 466 536 30,000  Level Denver Center
Sat 08:42:01 PM 39.5614 -98.7706 252° West 466 536 30,000  Level Denver Center
Sat 08:43:02 PM 39.5211 -98.9306 252° West 465 535 30,000  Level Denver Center
Sat 08:44:04 PM 39.4803 -99.0875 251° West 462 532 30,000  Level Denver Center
Sat 08:45:05 PM 39.4375 -99.2528 252° West 456 525 30,000  Level Denver Center
Sat 08:46:06 PM 39.3981 -99.4033 251° West 459 528 30,000  Level Denver Center
Sat 08:47:08 PM 39.3589 -99.5531 251° West 459 528 30,000  Level Denver Center
Sat 08:48:09 PM 39.3131 -99.7258 251° West 456 525 30,000  Level Denver Center
Sat 08:49:10 PM 39.2800 -99.8508 251° West 458 527 30,000  Level Denver Center
Sat 08:50:23 PM 39.2283 -100.0464 251° West 452 520 30,000  Level Denver Center
Sat 08:51:25 PM 39.1822 -100.2161 251° West 451 519 30,000  Level Denver Center
Sat 08:52:26 PM 39.1364 -100.3856 251° West 449 517 30,000  Level Denver Center
Sat 08:53:27 PM 39.0967 -100.5314 251° West 450 518 30,000  Level Denver Center
Sat 08:54:29 PM 39.0578 -100.6731 251° West 443 510 30,000  Level Denver Center
Sat 08:55:30 PM 39.0114 -100.8414 251° West 447 514 30,000  Level Denver Center
Sat 08:56:31 PM 38.9739 -100.9797 251° West 447 514 30,000  Level Denver Center
Sat 08:57:32 PM 38.9275 -101.1450 250° West 442 509 30,000  Level Denver Center
Sat 08:58:33 PM 38.8886 -101.2836 250° West 434 499 30,000  Level Denver Center
Sat 08:59:35 PM 38.8428 -101.4472 250° West 436 502 30,000  Level Denver Center
Sat 09:00:36 PM 38.8028 -101.5839 249° West 431 496 30,000  Level Denver Center
Sat 09:01:37 PM 38.7639 -101.7222 250° West 433 498 30,000  Level Denver Center
Sat 09:02:38 PM 38.7181 -101.8814 250° West 427 491 30,000  Level Denver Center
Sat 09:03:40 PM 38.6786 -102.0206 250° West 434 499 30,000  Level Denver Center
Sat 09:04:41 PM 38.6314 -102.1800 249° West 430 495 30,000  Level Denver Center
Sat 09:05:42 PM 38.5917 -102.3175 250° West 432 497 30,000  Level Denver Center
Sat 09:06:43 PM 38.5517 -102.4533 249° West 429 494 30,000  Level Denver Center
Sat 09:07:45 PM 38.5047 -102.6136 250° West 432 497 30,000  Level Denver Center
Sat 09:08:46 PM 38.4647 -102.7494 249° West 429 494 30,000  Level Denver Center
Sat 09:09:47 PM 38.4178 -102.9083 249° West 429 494 30,000  Level Denver Center
Sat 09:10:48 PM 38.3769 -103.0436 249° West 428 493 30,000  Level Denver Center
Sat 09:11:50 PM 38.3350 -103.1794 249° West 431 496 30,000  Level Denver Center
Sat 09:12:51 PM 38.2889 -103.3333 249° West 425 489 30,000  Level Denver Center
Sat 09:13:52 PM 38.2481 -103.4689 249° West 427 491 30,000 98 Level Denver Center
Sat 09:14:53 PM 38.2006 -103.6250 249° West 426 490 30,200 851 Climbing Denver Center
Sat 09:16:06 PM 38.1594 -103.7586 249° West 425 489 31,900 1,467 Climbing Denver Center
Sat 09:17:08 PM 38.1072 -103.9267 248° West 407 468 33,500 1,024 Climbing Denver Center
Sat 09:18:09 PM 38.0689 -104.0511 249° West 399 459 34,000 244 Climbing Denver Center
Sat 09:19:11 PM 38.0225 -104.1981 248° West 403 464 34,000  Level Denver Center
Sat 09:20:12 PM 37.9833 -104.3247 249° West 407 468 34,000  Level Denver Center
Sat 09:21:13 PM 37.9436 -104.4506 248° West 405 466 34,000  Level Denver Center
Sat 09:22:14 PM 37.8967 -104.5983 248° West 407 468 34,000  Level Denver Center
Sat 09:23:16 PM 37.8558 -104.7231 248° West 404 465 34,000  Level Denver Center
Sat 09:24:17 PM 37.8097 -104.8689 248° West 402 463 34,000  Level Denver Center
Sat 09:25:18 PM 37.7692 -104.9947 248° West 404 465 34,000  Level Denver Center
Sat 09:26:19 PM 37.7300 -105.1194 248° West 402 463 34,000  Level Denver Center
Sat 09:27:21 PM 37.6831 -105.2631 248° West 398 458 34,000  Level Denver Center
Sat 09:28:22 PM 37.6431 -105.3872 248° West 399 459 34,000  Level Denver Center
Sat 09:29:23 PM 37.5956 -105.5319 248° West 400 460 34,000  Level Denver Center
Sat 09:30:37 PM 37.5536 -105.6542 247° West 398 458 34,000  Level Denver Center
Sat 09:31:38 PM 37.5033 -105.8075 248° West 393 452 34,000  Level Denver Center
Sat 09:32:40 PM 37.4556 -105.9492 247° West 392 451 34,000  Level Denver Center
Sat 09:33:41 PM 37.4147 -106.0714 247° West 396 456 34,000  Level Denver Center
Sat 09:34:42 PM 37.3750 -106.1947 248° West 399 459 34,000  Level Denver Center
Sat 09:35:56 PM 37.3267 -106.3375 247° West 398 458 34,000  Level Denver Center
Sat 09:36:57 PM 37.2794 -106.4803 247° West 398 458 34,000  Level Denver Center
Sat 09:37:59 PM 37.2311 -106.6219 247° West 396 456 34,000  Level Denver Center
Sat 09:39:01 PM 37.1892 -106.7433 247° West 396 456 34,000  Level Denver Center
Sat 09:40:01 PM 37.1403 -106.8856 247° West 397 457 34,000  Level Denver Center
Sat 09:41:03 PM 37.0983 -107.0078 247° West 400 460 34,000  Level Denver Center
Sat 09:42:04 PM 37.0556 -107.1308 246° West 401 461 34,000  Level Denver Center
Sat 09:43:05 PM 37.0069 -107.2742 247° West 403 464 34,000  Level Denver Center
Sat 09:44:06 PM 36.9633 -107.3972 246° West 402 463 34,000  Level Denver Center
Sat 09:45:08 PM 36.9133 -107.5400 246° West 402 463 34,000  Level Denver Center
Sat 09:46:09 PM 36.8700 -107.6631 246° West 404 465 34,000  Level Denver Center
Sat 09:47:10 PM 36.8281 -107.7853 247° West 402 463 34,000  Level Denver Center
Sat 09:48:12 PM 36.7761 -107.9264 245° Southwest 402 463 34,000  Level Denver Center
Sat 09:49:13 PM 36.7331 -108.0508 247° West 406 467 34,000  Level Denver Center
Sat 09:50:14 PM 36.6825 -108.1917 246° West 400 460 34,000  Level Denver Center
Sat 09:51:15 PM 36.6386 -108.3133 246° West 402 463 34,000  Level Denver Center
Sat 09:52:16 PM 36.5958 -108.4347 246° West 402 463 34,000  Level Denver Center
Sat 09:53:18 PM 36.5442 -108.5761 246° West 401 461 34,000  Level Denver Center
Sat 09:54:19 PM 36.5003 -108.6964 246° West 402 463 34,000  Level Denver Center
Sat 09:55:20 PM 36.4489 -108.8386 246° West 405 466 34,000  Level Denver Center
Sat 09:56:21 PM 36.4042 -108.9603 245° Southwest 407 468 34,000  Level Denver Center
Sat 09:57:22 PM 36.3594 -109.0814 245° Southwest 408 470 34,000  Level Denver Center
Sat 09:58:23 PM 36.3072 -109.2225 245° Southwest 407 468 34,000  Level Denver Center
Sat 09:59:24 PM 36.2619 -109.3431 245° Southwest 406 467 34,000  Level Denver Center
Sat 10:00:26 PM 36.2097 -109.4847 245° Southwest 406 467 34,000  Level Denver Center
Sat 10:01:27 PM 36.1639 -109.6056 245° Southwest 406 467 34,000  Level Denver Center
Sat 10:02:28 PM 36.1189 -109.7264 245° Southwest 406 467 34,000  Level Denver Center
Sat 10:03:29 PM 36.0658 -109.8669 245° Southwest 404 465 34,000  Level Denver Center
Sat 10:04:30 PM 36.0183 -109.9878 244° Southwest 407 468 34,000  Level Denver Center
Sat 10:05:31 PM 35.9664 -110.1269 245° Southwest 402 463 34,000  Level Denver Center
Sat 10:06:32 PM 35.9228 -110.2411 245° Southwest 403 464 34,000  Level Denver Center
Sat 10:07:33 PM 35.8744 -110.3667 245° Southwest 405 466 34,000  Level Denver Center
Sat 10:08:08 PM 35.8406 -110.4450 242° Southwest 403 464 34,000  Level Albuquerque Center
Sat 10:09:09 PM 35.7942 -110.5644 244° Southwest 403 464 34,000  Level Albuquerque Center
Sat 10:10:10 PM 35.7408 -110.7036 245° Southwest 402 463 34,000  Level Albuquerque Center
Sat 10:11:10 PM 35.6956 -110.8228 245° Southwest 403 464 34,000  Level Albuquerque Center
Sat 10:12:11 PM 35.6492 -110.9403 244° Southwest 400 460 34,000  Level Albuquerque Center
Sat 10:13:12 PM 35.6022 -111.0575 244° Southwest 400 460 34,000  Level Albuquerque Center
Sat 10:14:13 PM 35.5492 -111.1953 245° Southwest 399 459 34,000  Level Albuquerque Center
Sat 10:15:14 PM 35.5028 -111.3119 244° Southwest 398 458 34,000  Level Albuquerque Center
Sat 10:16:14 PM 35.4533 -111.4383 244° Southwest 401 461 34,000  Level Albuquerque Center
Sat 10:17:15 PM 35.4053 -111.5625 245° Southwest 406 467 34,000  Level Albuquerque Center
Sat 10:18:16 PM 35.3558 -111.6842 244° Southwest 401 461 34,000  Level Albuquerque Center
Sat 10:19:17 PM 35.3078 -111.8067 244° Southwest 400 460 34,000  Level Albuquerque Center
Sat 10:20:18 PM 35.2578 -111.9278 243° Southwest 401 461 34,000  Level Albuquerque Center
Sat 10:21:18 PM 35.2081 -112.0531 244° Southwest 405 466 34,000  Level Albuquerque Center
Sat 10:22:19 PM 35.1589 -112.1767 244° Southwest 407 468 34,000  Level Albuquerque Center
Sat 10:23:20 PM 35.0983 -112.3242 243° Southwest 405 466 34,000  Level Albuquerque Center
Sat 10:24:21 PM 35.0478 -112.4489 244° Southwest 408 470 34,000  Level Albuquerque Center
Sat 10:25:21 PM 34.9969 -112.5717 243° Southwest 407 468 34,000  Level Albuquerque Center
Sat 10:26:22 PM 34.9464 -112.6942 243° Southwest 404 465 34,000  Level Albuquerque Center
Sat 10:27:23 PM 34.8958 -112.8164 243° Southwest 404 465 34,000  Level Albuquerque Center
Sat 10:28:24 PM 34.8458 -112.9381 243° Southwest 402 463 34,000  Level Albuquerque Center
Sat 10:29:25 PM 34.7944 -113.0603 243° Southwest 404 465 34,000  Level Albuquerque Center
Sat 10:30:25 PM 34.7436 -113.1819 243° Southwest 404 465 34,000  Level Albuquerque Center
Sat 10:31:26 PM 34.6919 -113.3036 243° Southwest 406 467 34,000  Level Albuquerque Center
Sat 10:32:27 PM 34.6417 -113.4250 243° Southwest 404 465 34,000  Level Albuquerque Center
Sat 10:33:28 PM 34.5897 -113.5489 243° Southwest 408 470 34,000  Level Albuquerque Center
Sat 10:34:29 PM 34.5375 -113.6703 242° Southwest 409 471 34,000  Level Albuquerque Center
Sat 10:35:29 PM 34.4856 -113.7900 242° Southwest 406 467 34,000  Level Albuquerque Center
Sat 10:36:30 PM 34.4353 -113.9100 243° Southwest 402 463 34,000  Level Albuquerque Center
Sat 10:37:31 PM 34.3819 -114.0353 243° Southwest 405 466 34,000  Level Albuquerque Center
Sat 10:38:32 PM 34.3189 -114.1808 242° Southwest 407 468 34,000  Level Albuquerque Center
Sat 10:39:33 PM 34.2667 -114.3008 242° Southwest 405 466 34,000 -53 Level Albuquerque Center
Sat 10:40:25 PM 34.2228 -114.4033 243° Southwest 406 467 33,900 -421 Descending Los Angeles Center
Sat 10:41:27 PM 34.1711 -114.5219 242° Southwest 403 464 33,200 -829 Descending Los Angeles Center
Sat 10:42:28 PM 34.1197 -114.6414 243° Southwest 403 464 32,200 -984 Descending Los Angeles Center
Sat 10:43:29 PM 34.0658 -114.7636 242° Southwest 411 473 31,200 -984 Descending Los Angeles Center
Sat 10:44:30 PM 34.0119 -114.8864 242° Southwest 417 480 30,200 -976 Descending Los Angeles Center
Sat 10:45:32 PM 33.9564 -115.0103 242° Southwest 420 483 29,200 -976 Descending Los Angeles Center
Sat 10:46:33 PM 33.9011 -115.1364 242° Southwest 426 490 28,200 -984 Descending Los Angeles Center
Sat 10:47:34 PM 33.8447 -115.2622 242° Southwest 427 491 27,200 -1,033 Descending Los Angeles Center
Sat 10:48:35 PM 33.7794 -115.4111 242° Southwest 423 487 26,100 -1,024 Descending Los Angeles Center
Sat 10:49:37 PM 33.7253 -115.5300 241° Southwest 411 473 25,100 -976 Descending Los Angeles Center
Sat 10:50:38 PM 33.6714 -115.6492 242° Southwest 407 468 24,100 -590 Descending Los Angeles Center
Sat 10:51:39 PM 33.6178 -115.7661 241° Southwest 403 464 23,900 -98 Descending Los Angeles Center
Sat 10:52:40 PM 33.5492 -115.8733 233° Southwest 404 465 23,900 -49 Level Los Angeles Center
Sat 10:53:41 PM 33.4625 -115.9628 221° Southwest 410 472 23,800 -585 Descending Los Angeles Center
Sat 10:54:43 PM 33.3794 -116.0489 221° Southwest 400 460 22,700 -1,707 Descending Los Angeles Center
Sat 10:55:44 PM 33.3006 -116.1328 222° Southwest 386 444 20,300 -2,410 Descending Los Angeles Center
Sat 10:56:45 PM 33.2225 -116.2158 222° Southwest 379 436 17,800 -2,705 Descending Los Angeles Center
Sat 10:57:46 PM 33.1283 -116.3150 221° Southwest 378 435 14,800 -2,488 Descending Los Angeles Center
Sat 10:58:48 PM 33.0533 -116.3942 222° Southwest 368 423 12,700 -1,512 Descending Los Angeles Center
Sat 10:59:49 PM 32.9806 -116.4575 216° Southwest 339 390 11,700 -934 Descending Los Angeles Center
Sat 11:00:50 PM 32.9033 -116.5036 207° Southwest 312 359 10,800 -836 Descending Los Angeles Center
Sat 11:01:51 PM 32.8392 -116.5458 209° Southwest 290 334 10,000 -978 Descending Los Angeles Center
Sat 11:03:05 PM 32.7942 -116.6367 240° Southwest 270 311 8,600 -1,200 Descending Los Angeles Center
Sat 11:04:06 PM 32.7517 -116.7253 240° Southwest 261 300 7,300 -1,279 Descending Los Angeles Center
Sat 11:05:07 PM 32.7161 -116.8006 241° Southwest 260 299 6,000 -934 Descending Los Angeles Center
Sat 11:06:08 PM 32.6881 -116.8792 247° West 262 302 5,400 -593 Descending Los Angeles Center
Sat 11:06:28 PM 32.6833 -116.9000 255° West 244 281 5,200 -1,350 Descending Southern California TRACON
Sat 11:07:28 PM 32.6833 -116.9667 270° West 213 245 3,600 -1,350 Descending Southern California TRACON
Sat 11:08:28 PM 32.7000 -117.0333 287° West 182 209 2,500 -842 Descending Southern California TRACON
Sat 11:09:22 PM 32.7000 -117.0833 270° West 154 177 2,000 -579 Descending Southern California TRACON
Sat 11:10:22 PM 32.7167 -117.1167 301° West 141 162 1,400 -743 Descending Southern California TRACON
Sat 11:11:15 PM 32.7250 -117.1550 284° West 142 163 600 -906 Descending Los Angeles Center

Login

Don't have an account? Register now (free) for customized features, flight alerts, and more!